sensor_id;sensor_type;location;lat;lon;timestamp;P1;durP1;ratioP1;P2;durP2;ratioP2
55728;SDS011;41633;39.720;2.910;2023-06-14T00:00:19;11.55;;;3.22;;
55728;SDS011;41633;39.720;2.910;2023-06-14T00:02:45;11.70;;;3.17;;
55728;SDS011;41633;39.720;2.910;2023-06-14T00:05:12;12.18;;;3.22;;
55728;SDS011;41633;39.720;2.910;2023-06-14T00:07:39;10.90;;;3.40;;
55728;SDS011;41633;39.720;2.910;2023-06-14T00:10:09;13.00;;;3.78;;
55728;SDS011;41633;39.720;2.910;2023-06-14T00:12:35;13.40;;;4.35;;
55728;SDS011;41633;39.720;2.910;2023-06-14T00:15:02;13.52;;;4.10;;
55728;SDS011;41633;39.720;2.910;2023-06-14T00:17:28;15.95;;;4.22;;
55728;SDS011;41633;39.720;2.910;2023-06-14T00:19:58;11.60;;;3.60;;
55728;SDS011;41633;39.720;2.910;2023-06-14T00:22:25;17.00;;;4.78;;
55728;SDS011;41633;39.720;2.910;2023-06-14T00:24:53;14.65;;;4.53;;
55728;SDS011;41633;39.720;2.910;2023-06-14T00:27:19;13.07;;;4.20;;
55728;SDS011;41633;39.720;2.910;2023-06-14T00:29:46;13.35;;;4.70;;
55728;SDS011;41633;39.720;2.910;2023-06-14T00:32:12;13.40;;;4.15;;
55728;SDS011;41633;39.720;2.910;2023-06-14T00:34:38;15.82;;;4.90;;
55728;SDS011;41633;39.720;2.910;2023-06-14T00:37:04;13.70;;;4.30;;
55728;SDS011;41633;39.720;2.910;2023-06-14T00:39:30;12.98;;;4.13;;
55728;SDS011;41633;39.720;2.910;2023-06-14T00:41:56;13.70;;;4.75;;
55728;SDS011;41633;39.720;2.910;2023-06-14T00:44:24;14.77;;;4.60;;
55728;SDS011;41633;39.720;2.910;2023-06-14T00:46:50;12.02;;;4.13;;
55728;SDS011;41633;39.720;2.910;2023-06-14T00:49:16;12.90;;;4.28;;
55728;SDS011;41633;39.720;2.910;2023-06-14T00:51:43;11.63;;;3.70;;
55728;SDS011;41633;39.720;2.910;2023-06-14T00:54:09;12.88;;;3.95;;
55728;SDS011;41633;39.720;2.910;2023-06-14T00:56:36;11.93;;;3.83;;
55728;SDS011;41633;39.720;2.910;2023-06-14T00:59:02;11.88;;;3.85;;
55728;SDS011;41633;39.720;2.910;2023-06-14T01:01:28;12.85;;;4.40;;
55728;SDS011;41633;39.720;2.910;2023-06-14T01:03:58;13.35;;;4.47;;
55728;SDS011;41633;39.720;2.910;2023-06-14T01:06:35;11.60;;;4.20;;
55728;SDS011;41633;39.720;2.910;2023-06-14T01:11:41;11.35;;;3.80;;
55728;SDS011;41633;39.720;2.910;2023-06-14T01:14:11;14.82;;;4.40;;
55728;SDS011;41633;39.720;2.910;2023-06-14T01:16:38;12.27;;;3.40;;
55728;SDS011;41633;39.720;2.910;2023-06-14T01:19:05;12.45;;;3.83;;
55728;SDS011;41633;39.720;2.910;2023-06-14T01:21:37;10.80;;;3.35;;
55728;SDS011;41633;39.720;2.910;2023-06-14T01:24:07;11.45;;;3.47;;
55728;SDS011;41633;39.720;2.910;2023-06-14T01:26:34;14.52;;;4.00;;
55728;SDS011;41633;39.720;2.910;2023-06-14T01:29:00;13.70;;;4.03;;
55728;SDS011;41633;39.720;2.910;2023-06-14T01:31:27;12.57;;;4.00;;
55728;SDS011;41633;39.720;2.910;2023-06-14T01:33:54;10.60;;;4.05;;
55728;SDS011;41633;39.720;2.910;2023-06-14T01:36:21;11.55;;;4.32;;
55728;SDS011;41633;39.720;2.910;2023-06-14T01:38:48;14.63;;;4.38;;
55728;SDS011;41633;39.720;2.910;2023-06-14T01:41:16;11.57;;;4.25;;
55728;SDS011;41633;39.720;2.910;2023-06-14T01:43:43;12.18;;;3.78;;
55728;SDS011;41633;39.720;2.910;2023-06-14T01:46:11;11.82;;;3.72;;
55728;SDS011;41633;39.720;2.910;2023-06-14T01:48:37;11.13;;;4.25;;
55728;SDS011;41633;39.720;2.910;2023-06-14T01:51:03;13.02;;;3.63;;
55728;SDS011;41633;39.720;2.910;2023-06-14T01:53:30;11.50;;;4.05;;
55728;SDS011;41633;39.720;2.910;2023-06-14T01:55:56;10.50;;;3.85;;
55728;SDS011;41633;39.720;2.910;2023-06-14T01:58:22;11.07;;;3.97;;
55728;SDS011;41633;39.720;2.910;2023-06-14T02:00:49;14.55;;;4.28;;
55728;SDS011;41633;39.720;2.910;2023-06-14T02:03:16;12.68;;;3.85;;
55728;SDS011;41633;39.720;2.910;2023-06-14T02:05:44;12.98;;;4.15;;
55728;SDS011;41633;39.720;2.910;2023-06-14T02:08:10;13.25;;;3.90;;
55728;SDS011;41633;39.720;2.910;2023-06-14T02:10:36;11.77;;;3.40;;
55728;SDS011;41633;39.720;2.910;2023-06-14T02:13:02;11.00;;;3.38;;
55728;SDS011;41633;39.720;2.910;2023-06-14T02:15:28;13.15;;;3.65;;
55728;SDS011;41633;39.720;2.910;2023-06-14T02:17:59;11.50;;;3.22;;
55728;SDS011;41633;39.720;2.910;2023-06-14T02:20:26;14.38;;;4.00;;
55728;SDS011;41633;39.720;2.910;2023-06-14T02:22:52;12.30;;;3.67;;
55728;SDS011;41633;39.720;2.910;2023-06-14T02:25:18;12.80;;;3.72;;
55728;SDS011;41633;39.720;2.910;2023-06-14T02:27:44;10.63;;;3.72;;
55728;SDS011;41633;39.720;2.910;2023-06-14T02:30:10;12.25;;;3.78;;
55728;SDS011;41633;39.720;2.910;2023-06-14T02:32:37;10.05;;;3.67;;
55728;SDS011;41633;39.720;2.910;2023-06-14T02:35:03;9.73;;;3.17;;
55728;SDS011;41633;39.720;2.910;2023-06-14T02:37:29;10.90;;;3.75;;
55728;SDS011;41633;39.720;2.910;2023-06-14T02:39:56;10.75;;;3.88;;
55728;SDS011;41633;39.720;2.910;2023-06-14T02:42:22;10.60;;;3.60;;
55728;SDS011;41633;39.720;2.910;2023-06-14T02:44:48;10.80;;;3.55;;
55728;SDS011;41633;39.720;2.910;2023-06-14T02:47:17;13.00;;;3.50;;
55728;SDS011;41633;39.720;2.910;2023-06-14T02:49:43;11.18;;;3.47;;
55728;SDS011;41633;39.720;2.910;2023-06-14T02:52:11;11.48;;;3.88;;
55728;SDS011;41633;39.720;2.910;2023-06-14T02:54:37;11.15;;;3.75;;
55728;SDS011;41633;39.720;2.910;2023-06-14T02:57:04;10.38;;;3.45;;
55728;SDS011;41633;39.720;2.910;2023-06-14T02:59:32;10.77;;;3.45;;
55728;SDS011;41633;39.720;2.910;2023-06-14T03:01:58;10.65;;;3.97;;
55728;SDS011;41633;39.720;2.910;2023-06-14T03:04:24;11.10;;;3.42;;
55728;SDS011;41633;39.720;2.910;2023-06-14T03:06:51;11.50;;;3.67;;
55728;SDS011;41633;39.720;2.910;2023-06-14T03:09:19;11.23;;;3.67;;
55728;SDS011;41633;39.720;2.910;2023-06-14T03:11:45;11.70;;;3.72;;
55728;SDS011;41633;39.720;2.910;2023-06-14T03:14:11;15.02;;;4.57;;
55728;SDS011;41633;39.720;2.910;2023-06-14T03:16:38;11.65;;;3.90;;
55728;SDS011;41633;39.720;2.910;2023-06-14T03:19:06;12.75;;;3.70;;
55728;SDS011;41633;39.720;2.910;2023-06-14T03:21:32;11.00;;;3.33;;
55728;SDS011;41633;39.720;2.910;2023-06-14T03:23:59;10.45;;;3.42;;
55728;SDS011;41633;39.720;2.910;2023-06-14T03:26:28;10.48;;;2.90;;
55728;SDS011;41633;39.720;2.910;2023-06-14T03:28:55;9.43;;;2.55;;
55728;SDS011;41633;39.720;2.910;2023-06-14T03:31:21;9.02;;;3.10;;
55728;SDS011;41633;39.720;2.910;2023-06-14T03:33:48;10.23;;;2.90;;
55728;SDS011;41633;39.720;2.910;2023-06-14T03:36:15;8.73;;;3.05;;
55728;SDS011;41633;39.720;2.910;2023-06-14T03:38:42;8.15;;;2.53;;
55728;SDS011;41633;39.720;2.910;2023-06-14T03:41:08;7.80;;;2.22;;
55728;SDS011;41633;39.720;2.910;2023-06-14T03:43:35;6.22;;;2.00;;
55728;SDS011;41633;39.720;2.910;2023-06-14T03:46:01;7.75;;;2.10;;
55728;SDS011;41633;39.720;2.910;2023-06-14T03:48:27;6.40;;;2.25;;
55728;SDS011;41633;39.720;2.910;2023-06-14T03:50:53;8.10;;;2.47;;
55728;SDS011;41633;39.720;2.910;2023-06-14T03:53:20;7.57;;;2.20;;
55728;SDS011;41633;39.720;2.910;2023-06-14T03:55:48;7.85;;;2.20;;
55728;SDS011;41633;39.720;2.910;2023-06-14T03:58:15;8.20;;;2.55;;
55728;SDS011;41633;39.720;2.910;2023-06-14T04:00:41;7.65;;;2.30;;
55728;SDS011;41633;39.720;2.910;2023-06-14T04:03:08;7.03;;;2.13;;
55728;SDS011;41633;39.720;2.910;2023-06-14T04:05:35;7.57;;;2.33;;
55728;SDS011;41633;39.720;2.910;2023-06-14T04:08:02;7.60;;;2.10;;
55728;SDS011;41633;39.720;2.910;2023-06-14T04:10:29;6.32;;;2.17;;
55728;SDS011;41633;39.720;2.910;2023-06-14T04:12:55;7.22;;;2.08;;
55728;SDS011;41633;39.720;2.910;2023-06-14T04:15:21;8.45;;;2.53;;
55728;SDS011;41633;39.720;2.910;2023-06-14T04:17:47;6.13;;;2.15;;
55728;SDS011;41633;39.720;2.910;2023-06-14T04:20:14;9.07;;;2.58;;
55728;SDS011;41633;39.720;2.910;2023-06-14T04:22:40;7.45;;;2.47;;
55728;SDS011;41633;39.720;2.910;2023-06-14T04:25:08;8.00;;;2.00;;
55728;SDS011;41633;39.720;2.910;2023-06-14T04:27:34;6.75;;;2.05;;
55728;SDS011;41633;39.720;2.910;2023-06-14T04:30:01;7.75;;;2.20;;
55728;SDS011;41633;39.720;2.910;2023-06-14T04:32:27;8.25;;;2.55;;
55728;SDS011;41633;39.720;2.910;2023-06-14T04:34:57;8.65;;;2.70;;
55728;SDS011;41633;39.720;2.910;2023-06-14T04:37:24;8.30;;;2.63;;
55728;SDS011;41633;39.720;2.910;2023-06-14T04:39:55;10.07;;;3.03;;
55728;SDS011;41633;39.720;2.910;2023-06-14T04:42:22;9.20;;;3.30;;
55728;SDS011;41633;39.720;2.910;2023-06-14T04:44:50;8.07;;;2.70;;
55728;SDS011;41633;39.720;2.910;2023-06-14T04:47:20;9.60;;;2.88;;
55728;SDS011;41633;39.720;2.910;2023-06-14T04:49:46;9.60;;;2.88;;
55728;SDS011;41633;39.720;2.910;2023-06-14T04:52:13;9.90;;;3.05;;
55728;SDS011;41633;39.720;2.910;2023-06-14T04:54:42;10.77;;;3.00;;
55728;SDS011;41633;39.720;2.910;2023-06-14T04:57:11;11.27;;;2.80;;
55728;SDS011;41633;39.720;2.910;2023-06-14T04:59:39;9.15;;;2.63;;
55728;SDS011;41633;39.720;2.910;2023-06-14T05:02:06;7.38;;;2.60;;
55728;SDS011;41633;39.720;2.910;2023-06-14T05:04:33;7.65;;;2.45;;
55728;SDS011;41633;39.720;2.910;2023-06-14T05:07:04;7.95;;;2.50;;
55728;SDS011;41633;39.720;2.910;2023-06-14T05:09:31;5.47;;;1.83;;
55728;SDS011;41633;39.720;2.910;2023-06-14T05:11:58;7.82;;;2.10;;
55728;SDS011;41633;39.720;2.910;2023-06-14T05:14:25;7.95;;;2.40;;
55728;SDS011;41633;39.720;2.910;2023-06-14T05:16:51;8.23;;;2.50;;
55728;SDS011;41633;39.720;2.910;2023-06-14T05:19:18;11.15;;;2.42;;
55728;SDS011;41633;39.720;2.910;2023-06-14T05:21:46;6.88;;;2.05;;
55728;SDS011;41633;39.720;2.910;2023-06-14T05:24:13;7.13;;;2.15;;
55728;SDS011;41633;39.720;2.910;2023-06-14T05:26:39;6.97;;;2.33;;
55728;SDS011;41633;39.720;2.910;2023-06-14T05:29:05;6.53;;;2.05;;
55728;SDS011;41633;39.720;2.910;2023-06-14T05:31:31;6.55;;;2.03;;
55728;SDS011;41633;39.720;2.910;2023-06-14T05:33:58;6.05;;;2.25;;
55728;SDS011;41633;39.720;2.910;2023-06-14T05:36:24;6.03;;;1.95;;
55728;SDS011;41633;39.720;2.910;2023-06-14T05:38:50;6.97;;;2.15;;
55728;SDS011;41633;39.720;2.910;2023-06-14T05:41:23;5.53;;;2.00;;
55728;SDS011;41633;39.720;2.910;2023-06-14T05:43:49;7.43;;;2.25;;
55728;SDS011;41633;39.720;2.910;2023-06-14T05:46:15;7.47;;;2.10;;
55728;SDS011;41633;39.720;2.910;2023-06-14T05:48:46;7.00;;;2.20;;
55728;SDS011;41633;39.720;2.910;2023-06-14T05:51:13;6.95;;;2.40;;
55728;SDS011;41633;39.720;2.910;2023-06-14T05:53:39;8.70;;;2.28;;
55728;SDS011;41633;39.720;2.910;2023-06-14T05:56:05;8.85;;;2.60;;
55728;SDS011;41633;39.720;2.910;2023-06-14T05:58:32;8.13;;;2.80;;
55728;SDS011;41633;39.720;2.910;2023-06-14T06:00:58;9.30;;;3.05;;
55728;SDS011;41633;39.720;2.910;2023-06-14T06:03:24;11.20;;;3.05;;
55728;SDS011;41633;39.720;2.910;2023-06-14T06:05:50;8.75;;;3.25;;
55728;SDS011;41633;39.720;2.910;2023-06-14T06:08:16;7.63;;;2.70;;
55728;SDS011;41633;39.720;2.910;2023-06-14T06:10:42;7.85;;;2.70;;
55728;SDS011;41633;39.720;2.910;2023-06-14T06:13:08;6.53;;;2.10;;
55728;SDS011;41633;39.720;2.910;2023-06-14T06:15:35;7.57;;;2.35;;
55728;SDS011;41633;39.720;2.910;2023-06-14T06:18:01;8.32;;;2.40;;
55728;SDS011;41633;39.720;2.910;2023-06-14T06:20:28;8.43;;;2.20;;
55728;SDS011;41633;39.720;2.910;2023-06-14T06:22:57;7.00;;;2.47;;
55728;SDS011;41633;39.720;2.910;2023-06-14T06:25:23;6.82;;;2.22;;
55728;SDS011;41633;39.720;2.910;2023-06-14T06:27:51;7.25;;;2.40;;
55728;SDS011;41633;39.720;2.910;2023-06-14T06:30:18;7.60;;;2.47;;
55728;SDS011;41633;39.720;2.910;2023-06-14T06:32:44;6.93;;;2.00;;
55728;SDS011;41633;39.720;2.910;2023-06-14T06:35:11;7.00;;;2.40;;
55728;SDS011;41633;39.720;2.910;2023-06-14T06:37:38;6.05;;;2.30;;
55728;SDS011;41633;39.720;2.910;2023-06-14T06:40:04;6.45;;;1.90;;
55728;SDS011;41633;39.720;2.910;2023-06-14T06:42:31;7.22;;;2.00;;
55728;SDS011;41633;39.720;2.910;2023-06-14T06:44:57;7.15;;;2.00;;
55728;SDS011;41633;39.720;2.910;2023-06-14T06:47:23;5.80;;;1.88;;
55728;SDS011;41633;39.720;2.910;2023-06-14T06:49:50;10.25;;;2.28;;
55728;SDS011;41633;39.720;2.910;2023-06-14T06:52:16;5.85;;;2.00;;
55728;SDS011;41633;39.720;2.910;2023-06-14T06:54:42;6.40;;;2.58;;
55728;SDS011;41633;39.720;2.910;2023-06-14T06:57:08;7.57;;;2.40;;
55728;SDS011;41633;39.720;2.910;2023-06-14T06:59:36;6.82;;;2.10;;
55728;SDS011;41633;39.720;2.910;2023-06-14T07:02:02;5.00;;;1.95;;
55728;SDS011;41633;39.720;2.910;2023-06-14T07:04:28;6.20;;;2.00;;
55728;SDS011;41633;39.720;2.910;2023-06-14T07:06:54;6.45;;;2.10;;
55728;SDS011;41633;39.720;2.910;2023-06-14T07:09:21;5.13;;;1.83;;
55728;SDS011;41633;39.720;2.910;2023-06-14T07:11:47;8.60;;;2.00;;
55728;SDS011;41633;39.720;2.910;2023-06-14T07:14:14;7.38;;;2.05;;
55728;SDS011;41633;39.720;2.910;2023-06-14T07:16:40;8.68;;;1.73;;
55728;SDS011;41633;39.720;2.910;2023-06-14T07:19:06;4.95;;;1.85;;
55728;SDS011;41633;39.720;2.910;2023-06-14T07:21:34;7.72;;;2.05;;
55728;SDS011;41633;39.720;2.910;2023-06-14T07:24:02;5.75;;;2.00;;
55728;SDS011;41633;39.720;2.910;2023-06-14T07:26:29;7.97;;;2.60;;
55728;SDS011;41633;39.720;2.910;2023-06-14T07:28:55;7.25;;;2.20;;
55728;SDS011;41633;39.720;2.910;2023-06-14T07:31:21;6.78;;;2.30;;
55728;SDS011;41633;39.720;2.910;2023-06-14T07:33:47;6.40;;;2.13;;
55728;SDS011;41633;39.720;2.910;2023-06-14T07:36:13;9.25;;;2.22;;
55728;SDS011;41633;39.720;2.910;2023-06-14T07:38:39;6.30;;;2.15;;
55728;SDS011;41633;39.720;2.910;2023-06-14T07:41:06;7.03;;;2.35;;
55728;SDS011;41633;39.720;2.910;2023-06-14T07:43:32;7.45;;;2.75;;
55728;SDS011;41633;39.720;2.910;2023-06-14T07:45:58;9.98;;;3.03;;
55728;SDS011;41633;39.720;2.910;2023-06-14T07:48:24;6.72;;;2.40;;
55728;SDS011;41633;39.720;2.910;2023-06-14T07:50:50;6.50;;;2.22;;
55728;SDS011;41633;39.720;2.910;2023-06-14T07:53:16;6.63;;;1.95;;
55728;SDS011;41633;39.720;2.910;2023-06-14T07:55:42;9.00;;;2.45;;
55728;SDS011;41633;39.720;2.910;2023-06-14T07:58:09;12.15;;;2.15;;
55728;SDS011;41633;39.720;2.910;2023-06-14T08:00:36;12.07;;;2.70;;
55728;SDS011;41633;39.720;2.910;2023-06-14T08:03:02;9.45;;;1.88;;
55728;SDS011;41633;39.720;2.910;2023-06-14T08:05:29;6.35;;;1.65;;
55728;SDS011;41633;39.720;2.910;2023-06-14T08:07:55;7.28;;;1.70;;
55728;SDS011;41633;39.720;2.910;2023-06-14T08:10:22;11.40;;;2.63;;
55728;SDS011;41633;39.720;2.910;2023-06-14T08:12:48;9.85;;;2.97;;
55728;SDS011;41633;39.720;2.910;2023-06-14T08:15:17;7.30;;;2.10;;
55728;SDS011;41633;39.720;2.910;2023-06-14T08:17:44;11.23;;;2.30;;
55728;SDS011;41633;39.720;2.910;2023-06-14T08:20:10;8.73;;;2.45;;
55728;SDS011;41633;39.720;2.910;2023-06-14T08:22:36;7.18;;;1.90;;
55728;SDS011;41633;39.720;2.910;2023-06-14T08:25:03;6.93;;;2.00;;
55728;SDS011;41633;39.720;2.910;2023-06-14T08:27:29;6.38;;;2.38;;
55728;SDS011;41633;39.720;2.910;2023-06-14T08:29:56;6.45;;;2.05;;
55728;SDS011;41633;39.720;2.910;2023-06-14T08:32:22;7.43;;;2.33;;
55728;SDS011;41633;39.720;2.910;2023-06-14T08:34:48;4.82;;;1.80;;
55728;SDS011;41633;39.720;2.910;2023-06-14T08:37:14;6.50;;;2.00;;
55728;SDS011;41633;39.720;2.910;2023-06-14T08:39:41;8.18;;;2.25;;
55728;SDS011;41633;39.720;2.910;2023-06-14T08:42:09;5.70;;;1.70;;
55728;SDS011;41633;39.720;2.910;2023-06-14T08:44:35;6.13;;;1.90;;
55728;SDS011;41633;39.720;2.910;2023-06-14T08:47:02;7.65;;;2.00;;
55728;SDS011;41633;39.720;2.910;2023-06-14T08:49:31;6.13;;;1.83;;
55728;SDS011;41633;39.720;2.910;2023-06-14T08:51:57;7.68;;;1.80;;
55728;SDS011;41633;39.720;2.910;2023-06-14T08:54:25;6.32;;;1.85;;
55728;SDS011;41633;39.720;2.910;2023-06-14T08:56:53;6.90;;;1.77;;
55728;SDS011;41633;39.720;2.910;2023-06-14T08:59:24;7.28;;;1.92;;
55728;SDS011;41633;39.720;2.910;2023-06-14T09:01:50;6.05;;;1.85;;
55728;SDS011;41633;39.720;2.910;2023-06-14T09:04:17;6.05;;;2.10;;
55728;SDS011;41633;39.720;2.910;2023-06-14T09:06:47;7.35;;;2.47;;
55728;SDS011;41633;39.720;2.910;2023-06-14T09:09:21;4.50;;;1.73;;
55728;SDS011;41633;39.720;2.910;2023-06-14T09:11:51;5.47;;;1.55;;
55728;SDS011;41633;39.720;2.910;2023-06-14T09:14:21;6.47;;;2.00;;
55728;SDS011;41633;39.720;2.910;2023-06-14T09:16:47;6.15;;;1.73;;
55728;SDS011;41633;39.720;2.910;2023-06-14T09:19:25;6.05;;;1.70;;
55728;SDS011;41633;39.720;2.910;2023-06-14T09:21:52;4.97;;;1.65;;
55728;SDS011;41633;39.720;2.910;2023-06-14T09:24:18;4.95;;;1.40;;
55728;SDS011;41633;39.720;2.910;2023-06-14T09:26:48;5.45;;;1.65;;
55728;SDS011;41633;39.720;2.910;2023-06-14T09:29:16;5.28;;;1.70;;
55728;SDS011;41633;39.720;2.910;2023-06-14T09:31:42;6.28;;;1.73;;
55728;SDS011;41633;39.720;2.910;2023-06-14T09:34:08;7.32;;;1.95;;
55728;SDS011;41633;39.720;2.910;2023-06-14T09:36:35;8.10;;;1.90;;
55728;SDS011;41633;39.720;2.910;2023-06-14T09:39:01;6.60;;;2.03;;
55728;SDS011;41633;39.720;2.910;2023-06-14T09:41:31;8.80;;;2.03;;
55728;SDS011;41633;39.720;2.910;2023-06-14T09:43:58;5.18;;;1.67;;
55728;SDS011;41633;39.720;2.910;2023-06-14T09:46:28;7.75;;;1.95;;
55728;SDS011;41633;39.720;2.910;2023-06-14T09:48:59;5.95;;;1.52;;
55728;SDS011;41633;39.720;2.910;2023-06-14T09:51:26;6.70;;;1.55;;
55728;SDS011;41633;39.720;2.910;2023-06-14T09:53:52;7.03;;;1.80;;
55728;SDS011;41633;39.720;2.910;2023-06-14T09:58:47;6.60;;;1.80;;
55728;SDS011;41633;39.720;2.910;2023-06-14T10:01:14;5.47;;;1.67;;
55728;SDS011;41633;39.720;2.910;2023-06-14T10:03:41;7.75;;;1.75;;
55728;SDS011;41633;39.720;2.910;2023-06-14T10:06:08;7.07;;;1.63;;
55728;SDS011;41633;39.720;2.910;2023-06-14T10:08:34;7.72;;;1.88;;
55728;SDS011;41633;39.720;2.910;2023-06-14T10:11:02;5.40;;;1.60;;
55728;SDS011;41633;39.720;2.910;2023-06-14T10:13:28;6.75;;;1.92;;
55728;SDS011;41633;39.720;2.910;2023-06-14T10:18:45;6.10;;;1.90;;
55728;SDS011;41633;39.720;2.910;2023-06-14T10:23:41;6.28;;;1.75;;
55728;SDS011;41633;39.720;2.910;2023-06-14T10:26:08;6.85;;;1.63;;
55728;SDS011;41633;39.720;2.910;2023-06-14T10:28:36;7.63;;;1.65;;
55728;SDS011;41633;39.720;2.910;2023-06-14T10:33:29;12.02;;;1.88;;
55728;SDS011;41633;39.720;2.910;2023-06-14T10:38:34;6.45;;;1.90;;
55728;SDS011;41633;39.720;2.910;2023-06-14T10:41:02;8.90;;;1.58;;
55728;SDS011;41633;39.720;2.910;2023-06-14T10:43:30;6.95;;;1.67;;
55728;SDS011;41633;39.720;2.910;2023-06-14T10:46:15;6.45;;;1.58;;
55728;SDS011;41633;39.720;2.910;2023-06-14T10:51:19;5.40;;;1.40;;
55728;SDS011;41633;39.720;2.910;2023-06-14T10:53:48;9.68;;;1.50;;
55728;SDS011;41633;39.720;2.910;2023-06-14T10:58:51;7.53;;;1.75;;
55728;SDS011;41633;39.720;2.910;2023-06-14T11:01:31;6.18;;;1.52;;
55728;SDS011;41633;39.720;2.910;2023-06-14T11:04:01;5.18;;;1.45;;
55728;SDS011;41633;39.720;2.910;2023-06-14T11:06:36;7.18;;;1.50;;
55728;SDS011;41633;39.720;2.910;2023-06-14T11:09:25;5.70;;;1.45;;
55728;SDS011;41633;39.720;2.910;2023-06-14T11:11:59;5.60;;;1.48;;
55728;SDS011;41633;39.720;2.910;2023-06-14T11:14:29;5.35;;;1.50;;
55728;SDS011;41633;39.720;2.910;2023-06-14T11:16:56;5.18;;;1.48;;
55728;SDS011;41633;39.720;2.910;2023-06-14T11:19:22;3.97;;;1.20;;
55728;SDS011;41633;39.720;2.910;2023-06-14T11:21:49;3.13;;;1.10;;
55728;SDS011;41633;39.720;2.910;2023-06-14T11:24:16;6.25;;;1.20;;
55728;SDS011;41633;39.720;2.910;2023-06-14T11:26:42;5.25;;;1.40;;
55728;SDS011;41633;39.720;2.910;2023-06-14T11:29:08;4.88;;;1.40;;
55728;SDS011;41633;39.720;2.910;2023-06-14T11:31:34;6.90;;;1.40;;
55728;SDS011;41633;39.720;2.910;2023-06-14T11:34:00;3.85;;;1.08;;
55728;SDS011;41633;39.720;2.910;2023-06-14T11:36:30;4.72;;;1.30;;
55728;SDS011;41633;39.720;2.910;2023-06-14T11:39:03;3.92;;;1.20;;
55728;SDS011;41633;39.720;2.910;2023-06-14T11:44:01;5.65;;;1.30;;
55728;SDS011;41633;39.720;2.910;2023-06-14T11:46:27;3.97;;;1.48;;
55728;SDS011;41633;39.720;2.910;2023-06-14T11:48:54;4.10;;;1.30;;
55728;SDS011;41633;39.720;2.910;2023-06-14T11:51:20;6.35;;;1.65;;
55728;SDS011;41633;39.720;2.910;2023-06-14T11:53:46;4.20;;;1.60;;
55728;SDS011;41633;39.720;2.910;2023-06-14T11:56:13;4.10;;;1.23;;
55728;SDS011;41633;39.720;2.910;2023-06-14T11:58:39;10.52;;;1.40;;
55728;SDS011;41633;39.720;2.910;2023-06-14T12:01:05;5.28;;;1.45;;
55728;SDS011;41633;39.720;2.910;2023-06-14T12:03:32;4.20;;;1.20;;
55728;SDS011;41633;39.720;2.910;2023-06-14T12:06:07;6.43;;;1.23;;
55728;SDS011;41633;39.720;2.910;2023-06-14T12:08:37;4.18;;;1.38;;
55728;SDS011;41633;39.720;2.910;2023-06-14T12:11:12;4.75;;;1.48;;
55728;SDS011;41633;39.720;2.910;2023-06-14T12:13:39;3.65;;;1.40;;
55728;SDS011;41633;39.720;2.910;2023-06-14T12:16:07;4.13;;;1.52;;
55728;SDS011;41633;39.720;2.910;2023-06-14T12:18:34;4.20;;;1.30;;
55728;SDS011;41633;39.720;2.910;2023-06-14T12:21:00;5.50;;;1.30;;
55728;SDS011;41633;39.720;2.910;2023-06-14T12:23:37;5.35;;;1.67;;
55728;SDS011;41633;39.720;2.910;2023-06-14T12:26:04;4.82;;;1.75;;
55728;SDS011;41633;39.720;2.910;2023-06-14T12:28:31;5.00;;;1.30;;
55728;SDS011;41633;39.720;2.910;2023-06-14T12:30:57;4.55;;;1.35;;
55728;SDS011;41633;39.720;2.910;2023-06-14T12:33:24;4.68;;;1.50;;
55728;SDS011;41633;39.720;2.910;2023-06-14T12:35:50;4.45;;;1.45;;
55728;SDS011;41633;39.720;2.910;2023-06-14T12:38:17;6.13;;;1.77;;
55728;SDS011;41633;39.720;2.910;2023-06-14T12:40:43;6.15;;;1.92;;
55728;SDS011;41633;39.720;2.910;2023-06-14T12:43:09;4.35;;;1.35;;
55728;SDS011;41633;39.720;2.910;2023-06-14T12:45:35;3.97;;;1.30;;
55728;SDS011;41633;39.720;2.910;2023-06-14T12:48:01;5.00;;;1.20;;
55728;SDS011;41633;39.720;2.910;2023-06-14T12:50:28;3.13;;;1.00;;
55728;SDS011;41633;39.720;2.910;2023-06-14T12:52:54;2.92;;;1.30;;
55728;SDS011;41633;39.720;2.910;2023-06-14T12:55:20;3.90;;;1.13;;
55728;SDS011;41633;39.720;2.910;2023-06-14T12:57:46;3.92;;;1.30;;
55728;SDS011;41633;39.720;2.910;2023-06-14T13:00:14;3.28;;;1.40;;
55728;SDS011;41633;39.720;2.910;2023-06-14T13:02:42;5.70;;;1.38;;
55728;SDS011;41633;39.720;2.910;2023-06-14T13:05:08;4.55;;;1.80;;
55728;SDS011;41633;39.720;2.910;2023-06-14T13:07:34;6.05;;;1.83;;
55728;SDS011;41633;39.720;2.910;2023-06-14T13:10:00;6.03;;;1.85;;
55728;SDS011;41633;39.720;2.910;2023-06-14T13:12:26;4.93;;;1.50;;
55728;SDS011;41633;39.720;2.910;2023-06-14T13:14:53;5.55;;;1.73;;
55728;SDS011;41633;39.720;2.910;2023-06-14T13:17:19;4.65;;;1.80;;
55728;SDS011;41633;39.720;2.910;2023-06-14T13:19:45;5.82;;;2.28;;
55728;SDS011;41633;39.720;2.910;2023-06-14T13:22:11;9.70;;;3.13;;
55728;SDS011;41633;39.720;2.910;2023-06-14T13:24:37;7.07;;;1.90;;
55728;SDS011;41633;39.720;2.910;2023-06-14T13:27:03;4.72;;;1.70;;
55728;SDS011;41633;39.720;2.910;2023-06-14T13:29:30;6.30;;;1.85;;
55728;SDS011;41633;39.720;2.910;2023-06-14T13:31:57;4.32;;;1.40;;
55728;SDS011;41633;39.720;2.910;2023-06-14T13:34:24;6.78;;;1.85;;
55728;SDS011;41633;39.720;2.910;2023-06-14T13:36:50;3.97;;;1.42;;
55728;SDS011;41633;39.720;2.910;2023-06-14T13:39:16;11.77;;;2.00;;
55728;SDS011;41633;39.720;2.910;2023-06-14T13:41:42;7.20;;;1.88;;
55728;SDS011;41633;39.720;2.910;2023-06-14T13:44:08;6.20;;;1.50;;
55728;SDS011;41633;39.720;2.910;2023-06-14T13:46:39;6.93;;;1.63;;
55728;SDS011;41633;39.720;2.910;2023-06-14T13:49:05;11.65;;;2.58;;
55728;SDS011;41633;39.720;2.910;2023-06-14T13:51:31;6.00;;;1.60;;
55728;SDS011;41633;39.720;2.910;2023-06-14T13:53:58;4.50;;;1.65;;
55728;SDS011;41633;39.720;2.910;2023-06-14T13:56:24;4.63;;;1.70;;
55728;SDS011;41633;39.720;2.910;2023-06-14T13:58:50;3.50;;;1.40;;
55728;SDS011;41633;39.720;2.910;2023-06-14T14:01:19;5.80;;;1.60;;
55728;SDS011;41633;39.720;2.910;2023-06-14T14:03:46;6.03;;;1.77;;
55728;SDS011;41633;39.720;2.910;2023-06-14T14:06:12;11.68;;;2.15;;
55728;SDS011;41633;39.720;2.910;2023-06-14T14:08:38;10.75;;;2.33;;
55728;SDS011;41633;39.720;2.910;2023-06-14T14:11:05;6.13;;;1.67;;
55728;SDS011;41633;39.720;2.910;2023-06-14T14:13:32;8.23;;;2.40;;
55728;SDS011;41633;39.720;2.910;2023-06-14T14:16:01;5.72;;;1.80;;
55728;SDS011;41633;39.720;2.910;2023-06-14T14:18:27;6.28;;;1.80;;
55728;SDS011;41633;39.720;2.910;2023-06-14T14:20:53;5.03;;;1.80;;
55728;SDS011;41633;39.720;2.910;2023-06-14T14:23:20;5.13;;;1.70;;
55728;SDS011;41633;39.720;2.910;2023-06-14T14:25:46;4.93;;;1.83;;
55728;SDS011;41633;39.720;2.910;2023-06-14T14:28:12;6.70;;;2.13;;
55728;SDS011;41633;39.720;2.910;2023-06-14T14:30:41;5.18;;;1.70;;
55728;SDS011;41633;39.720;2.910;2023-06-14T14:33:07;6.03;;;1.90;;
55728;SDS011;41633;39.720;2.910;2023-06-14T14:35:33;12.07;;;2.90;;
55728;SDS011;41633;39.720;2.910;2023-06-14T14:37:59;8.52;;;2.50;;
55728;SDS011;41633;39.720;2.910;2023-06-14T14:40:25;6.70;;;2.00;;
55728;SDS011;41633;39.720;2.910;2023-06-14T14:42:52;5.15;;;2.10;;
55728;SDS011;41633;39.720;2.910;2023-06-14T14:45:18;6.25;;;1.58;;
55728;SDS011;41633;39.720;2.910;2023-06-14T14:47:44;4.47;;;1.90;;
55728;SDS011;41633;39.720;2.910;2023-06-14T14:50:10;7.40;;;1.90;;
55728;SDS011;41633;39.720;2.910;2023-06-14T14:52:36;6.20;;;2.10;;
55728;SDS011;41633;39.720;2.910;2023-06-14T14:55:02;5.38;;;1.70;;
55728;SDS011;41633;39.720;2.910;2023-06-14T14:57:28;4.72;;;1.85;;
55728;SDS011;41633;39.720;2.910;2023-06-14T14:59:56;4.03;;;1.52;;
55728;SDS011;41633;39.720;2.910;2023-06-14T15:02:22;4.63;;;1.70;;
55728;SDS011;41633;39.720;2.910;2023-06-14T15:04:49;4.55;;;1.63;;